Terminal Aerodrome Forecast
Issued by NWS Detroit/Pontiac, MI

Home | Current Version | Previous Version | Text Only | Print | Product List | Glossary On
Versions: 1 2 3 4 5 6 7 8 9 10 11 12 13 14 15 16 17 18 19 20 21 22 23 24 25
000
FTUS43 KDTX 261405 AAA
TAFDTW
TAF AMD
KDTW 261405Z 2614/2718 21012KT P6SM SCT035 BKN200
     FM261500 21012KT P6SM BKN045
     FM261900 22010KT P6SM BKN060
      TEMPO 2621/2624 2SM TSRA OVC030CB
     FM270100 16005KT P6SM SCT060 BKN120
     FM271000 18005KT 3SM BR SCT120 BKN250
     FM271400 20010KT P6SM BKN250=

USA.gov is the U.S. government's official web portal to all federal, state and local government web resources and services.